createdAt,value
2023-03-24T00:00:25.917Z,98020.06
2023-03-24T00:02:52.689Z,97830.63
2023-03-24T00:05:22.332Z,98030.22
2023-03-24T00:07:54.377Z,98018.97
2023-03-24T00:10:23.227Z,98025.44
2023-03-24T00:12:51.314Z,98020.28
2023-03-24T00:15:21.411Z,98022.91
2023-03-24T00:17:52.246Z,98100.50
2023-03-24T00:20:20.980Z,97549.00
2023-03-24T00:22:51.361Z,98062.25
2023-03-24T00:25:23.284Z,97882.31
2023-03-24T00:27:51.523Z,98022.44
2023-03-24T00:30:19.626Z,97984.94
2023-03-24T00:32:47.125Z,98025.22
2023-03-24T00:35:16.320Z,98020.22
2023-03-24T00:37:44.522Z,98164.13
2023-03-24T00:40:16.592Z,98008.75
2023-03-24T00:42:45.884Z,97863.34
2023-03-24T00:45:16.257Z,98012.66
2023-03-24T00:47:44.973Z,97897.53
2023-03-24T00:50:17.438Z,97887.94
2023-03-24T00:52:47.868Z,97945.38
2023-03-24T00:55:16.612Z,98004.16
2023-03-24T00:57:50.264Z,97913.09
2023-03-24T01:00:26.826Z,98006.28
2023-03-24T01:02:57.297Z,97892.53
2023-03-24T01:05:30.289Z,97921.19
2023-03-24T01:08:03.419Z,98003.03
2023-03-24T01:10:33.890Z,98004.06
2023-03-24T01:13:02.149Z,98000.31
2023-03-24T01:15:33.339Z,97987.00
2023-03-24T01:18:03.580Z,98010.88
2023-03-24T01:20:34.282Z,97872.00
2023-03-24T01:23:05.236Z,98001.97
2023-03-24T01:25:32.915Z,97879.94
2023-03-24T01:27:59.597Z,98016.81
2023-03-24T01:30:28.439Z,97903.91
2023-03-24T01:32:55.881Z,98046.56
2023-03-24T01:35:27.713Z,98068.94
2023-03-24T01:37:56.690Z,97979.97
2023-03-24T01:40:26.897Z,98020.50
2023-03-24T01:42:54.583Z,98008.78
2023-03-24T01:45:42.203Z,98009.88
2023-03-24T01:48:14.295Z,98010.22
2023-03-24T01:50:45.016Z,98003.81
2023-03-24T01:53:12.725Z,97998.50
2023-03-24T01:55:40.217Z,97997.56
2023-03-24T01:58:08.694Z,97690.41
2023-03-24T02:00:47.808Z,97474.22
2023-03-24T02:03:36.684Z,97630.16
2023-03-24T02:06:04.976Z,97982.03
2023-03-24T02:08:38.781Z,97849.16
2023-03-24T02:11:05.985Z,97984.69
2023-03-24T02:13:43.366Z,97860.50
2023-03-24T02:16:15.628Z,97986.53
2023-03-24T02:19:20.017Z,97977.78
2023-03-24T02:22:24.164Z,97983.75
2023-03-24T02:25:32.933Z,97983.09
2023-03-24T02:28:12.730Z,97975.06
2023-03-24T02:30:48.807Z,97973.94
2023-03-24T02:33:36.807Z,97976.81
2023-03-24T02:36:21.778Z,97975.44
2023-03-24T02:39:07.309Z,97975.41
2023-03-24T02:41:45.724Z,97983.81
2023-03-24T02:44:31.020Z,97986.06
2023-03-24T02:47:12.445Z,98019.13
2023-03-24T02:49:48.269Z,97871.56
2023-03-24T02:52:29.914Z,97988.19
2023-03-24T02:55:28.156Z,97979.00
2023-03-24T02:58:08.545Z,97977.97
2023-03-24T03:00:52.385Z,97956.91
2023-03-24T03:03:34.538Z,97986.22
2023-03-24T03:06:15.283Z,97982.84
2023-03-24T03:08:42.986Z,97984.50
2023-03-24T03:11:14.007Z,98023.81
2023-03-24T03:13:51.203Z,97812.38
2023-03-24T03:16:38.326Z,97927.75
2023-03-24T03:19:11.003Z,97986.19
2023-03-24T03:21:43.355Z,97526.09
2023-03-24T03:24:20.186Z,98091.28
2023-03-24T03:26:48.993Z,97848.63
2023-03-24T03:29:23.087Z,97967.72
2023-03-24T03:31:59.244Z,97832.34
2023-03-24T03:34:43.153Z,97971.50
2023-03-24T03:37:18.969Z,97972.84
2023-03-24T03:39:50.552Z,97969.72
2023-03-24T03:42:17.621Z,97967.94
2023-03-24T03:44:45.008Z,97961.97
2023-03-24T03:47:11.832Z,97968.59
2023-03-24T03:49:43.425Z,97745.59
2023-03-24T03:52:10.686Z,97876.34
2023-03-24T03:54:38.562Z,97967.94
2023-03-24T03:57:05.339Z,97967.78
2023-03-24T03:59:40.291Z,97987.47
2023-03-24T04:02:28.893Z,97963.44
2023-03-24T04:05:14.974Z,97970.09
2023-03-24T04:08:07.367Z,97964.88
2023-03-24T04:11:09.277Z,97958.09
2023-03-24T04:13:54.628Z,98047.47
2023-03-24T04:16:47.505Z,97960.88
2023-03-24T04:19:33.518Z,97967.72
2023-03-24T04:22:24.173Z,97909.44
2023-03-24T04:25:14.331Z,97922.94
2023-03-24T04:28:05.330Z,97959.03
2023-03-24T04:30:50.420Z,97960.88
2023-03-24T04:33:43.468Z,97956.31
2023-03-24T04:36:19.152Z,97848.28
2023-03-24T04:39:06.088Z,97881.06
2023-03-24T04:41:40.290Z,97944.03
2023-03-24T04:44:17.684Z,97938.22
2023-03-24T04:47:05.616Z,97948.94
2023-03-24T04:49:32.657Z,97918.03
2023-03-24T04:51:59.206Z,97912.50
2023-03-24T04:54:28.089Z,97939.59
2023-03-24T04:57:02.489Z,97937.34
2023-03-24T04:59:34.274Z,97937.44
2023-03-24T05:02:03.478Z,97935.31
2023-03-24T05:04:38.025Z,97933.59
2023-03-24T05:07:15.496Z,97933.53
2023-03-24T05:09:43.431Z,97495.56
2023-03-24T05:12:10.519Z,97905.88
2023-03-24T05:14:57.148Z,97866.00
2023-03-24T05:17:23.736Z,97933.50
2023-03-24T05:19:50.533Z,97936.66
2023-03-24T05:22:17.185Z,97848.63
2023-03-24T05:24:43.846Z,97926.38
2023-03-24T05:27:10.960Z,97921.75
2023-03-24T05:29:37.662Z,97927.81
2023-03-24T05:32:04.881Z,97922.69
2023-03-24T05:34:31.626Z,97672.44
2023-03-24T05:37:12.063Z,97794.78
2023-03-24T05:39:38.999Z,97903.84
2023-03-24T05:42:09.171Z,97674.22
2023-03-24T05:44:36.554Z,97810.59
2023-03-24T05:47:10.812Z,97630.84
2023-03-24T05:49:38.260Z,97905.16
2023-03-24T05:52:05.965Z,97896.00
2023-03-24T05:54:34.040Z,97724.59
2023-03-24T05:57:16.614Z,97834.19
2023-03-24T06:00:07.817Z,97881.38
2023-03-24T06:02:56.597Z,97828.59
2023-03-24T06:05:46.114Z,97877.69
2023-03-24T06:08:13.505Z,97779.25
2023-03-24T06:10:41.086Z,97882.41
2023-03-24T06:13:09.323Z,97888.69
2023-03-24T06:15:39.682Z,97768.38
2023-03-24T06:18:21.506Z,97879.09
2023-03-24T06:20:50.802Z,97801.06
2023-03-24T06:23:25.788Z,97887.81
2023-03-24T06:26:09.134Z,97867.97
2023-03-24T06:28:39.875Z,97862.78
2023-03-24T06:31:20.319Z,97859.72
2023-03-24T06:33:50.055Z,97856.78
2023-03-24T06:36:17.357Z,97850.00
2023-03-24T06:38:45.593Z,97691.81
2023-03-24T06:41:16.680Z,97846.34
2023-03-24T06:43:43.683Z,97844.09
2023-03-24T06:46:10.990Z,97842.94
2023-03-24T06:48:40.950Z,97832.41
2023-03-24T06:51:08.404Z,97852.34
2023-03-24T06:53:35.379Z,97742.44
2023-03-24T06:56:02.218Z,97659.91
2023-03-24T06:58:35.848Z,97513.84
2023-03-24T07:01:07.567Z,97827.69
2023-03-24T07:03:36.960Z,97825.66
2023-03-24T07:06:30.158Z,97823.88
2023-03-24T07:09:04.482Z,97823.09
2023-03-24T07:11:31.711Z,97821.44
2023-03-24T07:14:00.141Z,97595.03
2023-03-24T07:16:28.567Z,97811.28
2023-03-24T07:19:06.857Z,97812.44
2023-03-24T07:21:36.373Z,97587.53
2023-03-24T07:24:03.186Z,97802.88
2023-03-24T07:26:37.526Z,97799.00
2023-03-24T07:29:11.938Z,97780.22
2023-03-24T07:31:58.747Z,97797.88
2023-03-24T07:34:26.163Z,97798.34
2023-03-24T07:36:52.900Z,97800.47
2023-03-24T07:39:20.912Z,97776.06
2023-03-24T07:41:48.283Z,97799.69
2023-03-24T07:44:25.780Z,97626.75
2023-03-24T07:46:53.436Z,97718.44
2023-03-24T07:49:20.775Z,97792.72
2023-03-24T07:52:02.122Z,97786.56
2023-03-24T07:54:34.293Z,97744.66
2023-03-24T07:57:01.576Z,97737.72
2023-03-24T07:59:28.562Z,97776.38
2023-03-24T08:02:05.610Z,97770.38
2023-03-24T08:04:42.993Z,97771.03
2023-03-24T08:07:21.884Z,97612.41
2023-03-24T08:09:48.520Z,97511.06
2023-03-24T08:12:20.548Z,97878.47
2023-03-24T08:14:47.591Z,97772.94
2023-03-24T08:17:14.193Z,97772.16
2023-03-24T08:19:56.118Z,97710.03
2023-03-24T08:22:26.916Z,97671.41
2023-03-24T08:24:53.482Z,97703.25
2023-03-24T08:27:20.493Z,97778.94
2023-03-24T08:29:47.088Z,97772.63
2023-03-24T08:32:13.927Z,97766.47
2023-03-24T08:34:40.571Z,97767.75
2023-03-24T08:37:08.026Z,97762.09
2023-03-24T08:39:36.049Z,97626.00
2023-03-24T08:42:02.874Z,97752.19
2023-03-24T08:44:31.658Z,97737.94
2023-03-24T08:47:01.326Z,97620.81
2023-03-24T08:49:28.053Z,97740.22
2023-03-24T08:51:55.477Z,97497.56
2023-03-24T08:54:23.910Z,97698.84
2023-03-24T08:56:51.127Z,97684.00
2023-03-24T08:59:18.369Z,97719.88
2023-03-24T09:01:44.984Z,97706.13
2023-03-24T09:04:11.944Z,97707.22
2023-03-24T09:06:38.610Z,97706.09
2023-03-24T09:09:05.332Z,97710.44
2023-03-24T09:11:31.939Z,97711.56
2023-03-24T09:13:59.001Z,97549.56
2023-03-24T09:16:25.706Z,97672.94
2023-03-24T09:18:52.415Z,97698.63
2023-03-24T09:21:19.116Z,97701.84
2023-03-24T09:23:45.882Z,97704.28
2023-03-24T09:26:12.633Z,97658.22
2023-03-24T09:28:39.194Z,97560.00
2023-03-24T09:31:06.424Z,97679.50
2023-03-24T09:33:34.841Z,97636.31
2023-03-24T09:36:03.610Z,97674.56
2023-03-24T09:38:30.473Z,97672.78
2023-03-24T09:41:03.409Z,97675.19
2023-03-24T09:43:57.115Z,97667.91
2023-03-24T09:46:31.957Z,97663.81
2023-03-24T09:48:58.689Z,97464.41
2023-03-24T09:51:31.574Z,97661.88
2023-03-24T09:54:16.626Z,97651.16
2023-03-24T09:56:46.223Z,97646.22
2023-03-24T09:59:21.192Z,97644.84
2023-03-24T10:01:49.556Z,97647.09
2023-03-24T10:04:21.591Z,97644.00
2023-03-24T10:06:54.625Z,97598.44
2023-03-24T10:09:27.664Z,97635.28
2023-03-24T10:12:22.543Z,97637.22
2023-03-24T10:15:07.395Z,97628.94
2023-03-24T10:18:10.889Z,97628.75
2023-03-24T10:21:04.581Z,97617.25
2023-03-24T10:23:45.826Z,97618.09
2023-03-24T10:26:15.338Z,97615.19
2023-03-24T10:28:50.340Z,97564.41
2023-03-24T10:31:21.216Z,97590.53
2023-03-24T10:33:48.038Z,97560.28
2023-03-24T10:36:20.161Z,97602.06
2023-03-24T10:38:47.460Z,97604.97
2023-03-24T10:41:25.869Z,97596.69
2023-03-24T10:43:54.680Z,97532.63
2023-03-24T10:46:28.122Z,97435.16
2023-03-24T10:49:10.111Z,97575.84
2023-03-24T10:51:36.873Z,97545.72
2023-03-24T10:54:30.554Z,97570.81
2023-03-24T10:57:06.067Z,97572.25
2023-03-24T10:59:37.273Z,97569.44
2023-03-24T11:02:10.237Z,97569.59
2023-03-24T11:04:40.906Z,97568.97
2023-03-24T11:07:19.064Z,97564.25
2023-03-24T11:09:56.207Z,97552.44
2023-03-24T11:12:29.946Z,97545.94
2023-03-24T11:15:23.262Z,97548.19
2023-03-24T11:17:53.231Z,97542.94
2023-03-24T11:20:29.580Z,97543.84
2023-03-24T11:23:02.302Z,97547.97
2023-03-24T11:25:35.285Z,97366.72
2023-03-24T11:28:14.797Z,97477.31
2023-03-24T11:31:11.928Z,97534.25
2023-03-24T11:33:46.579Z,97528.75
2023-03-24T11:36:33.017Z,97531.94
2023-03-24T11:39:02.533Z,97310.38
2023-03-24T11:41:29.844Z,97086.56
2023-03-24T11:44:26.239Z,97518.34
2023-03-24T11:47:00.788Z,97396.59
2023-03-24T11:49:47.016Z,97515.34
2023-03-24T11:52:24.079Z,97518.00
2023-03-24T11:54:50.923Z,97457.94
2023-03-24T11:57:26.658Z,97443.22
2023-03-24T12:00:02.598Z,97433.28
2023-03-24T12:02:46.139Z,97494.13
2023-03-24T12:05:28.293Z,97500.94
2023-03-24T12:08:31.703Z,97498.78
2023-03-24T12:11:04.923Z,97066.31
2023-03-24T12:13:34.438Z,97500.16
2023-03-24T12:16:32.170Z,97498.03
2023-03-24T12:19:17.935Z,97491.34
2023-03-24T12:22:16.175Z,97495.97
2023-03-24T12:24:48.795Z,97485.13
2023-03-24T12:27:34.891Z,97481.63
2023-03-24T12:30:17.650Z,97495.19
2023-03-24T12:32:56.375Z,97022.44
2023-03-24T12:35:34.440Z,97400.16
2023-03-24T12:38:21.061Z,97071.19
2023-03-24T12:41:13.587Z,97465.34
2023-03-24T12:44:00.339Z,97460.09
2023-03-24T12:46:47.816Z,97461.84
2023-03-24T12:49:41.971Z,97199.09
2023-03-24T12:52:34.272Z,97466.22
2023-03-24T12:55:08.301Z,97504.28
2023-03-24T12:58:02.976Z,97385.25
2023-03-24T13:01:15.268Z,97461.84
2023-03-24T13:04:01.114Z,97457.22
2023-03-24T13:06:33.406Z,97456.06
2023-03-24T13:09:13.210Z,96940.81
2023-03-24T13:11:58.661Z,97455.66
2023-03-24T13:14:31.339Z,97371.50
2023-03-24T13:17:06.086Z,97448.22
2023-03-24T13:19:34.385Z,97448.84
2023-03-24T13:22:04.288Z,97451.72
2023-03-24T13:24:31.540Z,97451.66
2023-03-24T13:27:20.793Z,97448.09
2023-03-24T13:30:13.626Z,97444.00
2023-03-24T13:32:45.848Z,97446.59
2023-03-24T13:35:30.950Z,97451.19
2023-03-24T13:38:09.795Z,97331.16
2023-03-24T13:40:40.369Z,97489.09
2023-03-24T13:43:12.216Z,97442.13
2023-03-24T13:45:53.304Z,97433.72
2023-03-24T13:48:50.286Z,97434.69
2023-03-24T13:51:18.475Z,97443.34
2023-03-24T13:53:53.928Z,97381.16
2023-03-24T13:56:31.477Z,97327.13
2023-03-24T13:58:58.173Z,97435.94
2023-03-24T14:01:38.807Z,97437.03
2023-03-24T14:04:22.749Z,97110.19
2023-03-24T14:06:52.086Z,97439.59
2023-03-24T14:09:25.002Z,97385.56
2023-03-24T14:11:54.954Z,97427.72
2023-03-24T14:14:26.980Z,97427.00
2023-03-24T14:17:05.862Z,97424.28
2023-03-24T14:19:41.847Z,97420.19
2023-03-24T14:22:30.755Z,97419.00
2023-03-24T14:25:00.665Z,97219.78
2023-03-24T14:27:32.702Z,97421.03
2023-03-24T14:30:06.254Z,97419.97
2023-03-24T14:32:43.908Z,97419.53
2023-03-24T14:35:34.452Z,97421.03
2023-03-24T14:38:19.591Z,97417.25
2023-03-24T14:40:49.645Z,97371.00
2023-03-24T14:43:38.993Z,97399.13
2023-03-24T14:46:21.016Z,97412.09
2023-03-24T14:49:02.116Z,97414.91
2023-03-24T14:51:36.651Z,97422.94
2023-03-24T14:54:33.487Z,97423.44
2023-03-24T14:57:00.544Z,97365.50
2023-03-24T14:59:52.257Z,97414.53
2023-03-24T15:02:40.392Z,97413.94
2023-03-24T15:05:21.943Z,97410.50
2023-03-24T15:08:20.836Z,97408.31
2023-03-24T15:10:58.203Z,97403.34
2023-03-24T15:13:27.825Z,97414.75
2023-03-24T15:15:54.820Z,97404.66
2023-03-24T15:18:25.737Z,96849.06
2023-03-24T15:20:53.206Z,97405.22
2023-03-24T15:23:22.939Z,97407.53
2023-03-24T15:25:49.684Z,97378.34
2023-03-24T15:28:21.522Z,97404.81
2023-03-24T15:30:50.138Z,97347.84
2023-03-24T15:33:17.544Z,97334.84
2023-03-24T15:35:46.099Z,97395.50
2023-03-24T15:38:21.828Z,97413.16
2023-03-24T15:41:04.782Z,97289.69
2023-03-24T15:43:31.425Z,97406.72
2023-03-24T15:46:11.776Z,97408.44
2023-03-24T15:48:39.479Z,97410.53
2023-03-24T15:51:09.729Z,97381.91
2023-03-24T15:53:49.092Z,97333.84
2023-03-24T15:56:19.936Z,97420.38
2023-03-24T15:59:07.639Z,97387.63
2023-03-24T16:01:38.344Z,97404.47
2023-03-24T16:04:06.936Z,97405.88
2023-03-24T16:06:35.529Z,97357.25
2023-03-24T16:09:08.545Z,97321.66
2023-03-24T16:11:35.315Z,97393.72
2023-03-24T16:14:15.502Z,97400.75
2023-03-24T16:16:44.177Z,97380.66
2023-03-24T16:19:10.960Z,97399.47
2023-03-24T16:21:37.610Z,97400.03
2023-03-24T16:24:04.648Z,97396.66
2023-03-24T16:26:32.727Z,97396.03
2023-03-24T16:29:15.487Z,97403.91
2023-03-24T16:31:42.599Z,97400.34
2023-03-24T16:34:09.232Z,97402.94
2023-03-24T16:36:36.384Z,97406.84
2023-03-24T16:39:09.899Z,97409.88
2023-03-24T16:41:36.517Z,97411.41
2023-03-24T16:44:03.787Z,97408.91
2023-03-24T16:46:34.701Z,97409.81
2023-03-24T16:49:04.037Z,97444.66
2023-03-24T16:51:30.874Z,97413.13
2023-03-24T16:53:57.920Z,97408.41
2023-03-24T16:56:24.543Z,97415.00
2023-03-24T16:58:54.447Z,97405.38
2023-03-24T17:01:33.690Z,97418.00
2023-03-24T17:04:01.865Z,97422.56
2023-03-24T17:06:31.821Z,97415.59
2023-03-24T17:08:59.276Z,97230.25
2023-03-24T17:11:29.747Z,97425.09
2023-03-24T17:14:01.878Z,97422.31
2023-03-24T17:16:29.708Z,97312.47
2023-03-24T17:18:56.442Z,97433.66
2023-03-24T17:21:23.605Z,97435.72
2023-03-24T17:23:54.875Z,97429.91
2023-03-24T17:26:25.367Z,97434.94
2023-03-24T17:28:52.811Z,97389.44
2023-03-24T17:31:19.435Z,97439.09
2023-03-24T17:33:46.095Z,97446.09
2023-03-24T17:36:16.639Z,97447.38
2023-03-24T17:38:44.011Z,97401.75
2023-03-24T17:41:11.039Z,97418.47
2023-03-24T17:43:37.752Z,97450.69
2023-03-24T17:46:04.620Z,97535.63
2023-03-24T17:48:31.733Z,97423.81
2023-03-24T17:50:58.417Z,97455.59
2023-03-24T17:53:28.378Z,97455.16
2023-03-24T17:55:58.871Z,97254.00
2023-03-24T17:58:29.997Z,97458.56
2023-03-24T18:00:58.294Z,97430.38
2023-03-24T18:03:25.890Z,97458.91
2023-03-24T18:05:52.627Z,97463.09
2023-03-24T18:08:19.532Z,97435.53
2023-03-24T18:10:46.229Z,97459.69
2023-03-24T18:13:14.490Z,97310.56
2023-03-24T18:15:42.812Z,97470.00
2023-03-24T18:18:09.615Z,97471.13
2023-03-24T18:20:36.728Z,97472.59
2023-03-24T18:23:04.472Z,97437.66
2023-03-24T18:25:32.070Z,97213.00
2023-03-24T18:27:58.816Z,97478.13
2023-03-24T18:30:25.461Z,97474.47
2023-03-24T18:32:52.130Z,97482.53
2023-03-24T18:35:18.945Z,97393.50
2023-03-24T18:37:45.717Z,97490.00
2023-03-24T18:40:12.850Z,97368.88
2023-03-24T18:42:39.506Z,97343.41
2023-03-24T18:45:07.161Z,97420.03
2023-03-24T18:47:34.167Z,97493.19
2023-03-24T18:50:01.394Z,97494.03
2023-03-24T18:52:28.135Z,97397.41
2023-03-24T18:54:54.706Z,97501.59
2023-03-24T18:57:21.524Z,97503.22
2023-03-24T18:59:48.632Z,97496.78
2023-03-24T19:02:15.574Z,97506.75
2023-03-24T19:04:43.237Z,97501.78
2023-03-24T19:07:14.382Z,97503.53
2023-03-24T19:09:42.168Z,97166.44
2023-03-24T19:12:09.519Z,97512.78
2023-03-24T19:14:36.606Z,97420.84
2023-03-24T19:17:03.495Z,97514.53
2023-03-24T19:19:31.625Z,97515.25
2023-03-24T19:21:59.251Z,97458.31
2023-03-24T19:24:26.398Z,97519.78
2023-03-24T19:26:53.898Z,97377.94
2023-03-24T19:29:21.496Z,97410.19
2023-03-24T19:31:49.602Z,97524.44
2023-03-24T19:34:16.347Z,97528.66
2023-03-24T19:36:45.844Z,97534.16
2023-03-24T19:39:13.698Z,97533.84
2023-03-24T19:41:41.097Z,97504.28
2023-03-24T19:44:08.001Z,97529.66
2023-03-24T19:46:34.580Z,97533.41
2023-03-24T19:49:01.259Z,97538.72
2023-03-24T19:51:27.820Z,97332.00
2023-03-24T19:53:54.733Z,97540.31
2023-03-24T19:56:21.817Z,97494.00
2023-03-24T19:58:48.565Z,97521.13
2023-03-24T20:01:15.287Z,97504.00
2023-03-24T20:03:42.098Z,97556.16
2023-03-24T20:06:09.413Z,97478.31
2023-03-24T20:08:37.633Z,97443.66
2023-03-24T20:11:11.489Z,97553.09
2023-03-24T20:13:38.143Z,97560.53
2023-03-24T20:16:05.105Z,97442.34
2023-03-24T20:18:31.805Z,97548.75
2023-03-24T20:21:00.040Z,97554.09
2023-03-24T20:23:27.490Z,97530.00
2023-03-24T20:25:54.068Z,97513.38
2023-03-24T20:28:21.374Z,97513.22
2023-03-24T20:30:48.072Z,97562.94
2023-03-24T20:33:14.839Z,97567.00
2023-03-24T20:35:42.002Z,97541.47
2023-03-24T20:38:08.802Z,97571.03
2023-03-24T20:40:35.717Z,97566.69
2023-03-24T20:43:02.636Z,97573.16
2023-03-24T20:45:29.233Z,97572.03
2023-03-24T20:47:56.064Z,97506.28
2023-03-24T20:50:22.739Z,97581.72
2023-03-24T20:52:49.486Z,97616.56
2023-03-24T20:55:16.958Z,97401.97
2023-03-24T20:57:43.578Z,97578.00
2023-03-24T21:00:13.526Z,97554.56
2023-03-24T21:02:43.657Z,97413.13
2023-03-24T21:05:10.766Z,97410.66
2023-03-24T21:07:38.412Z,97579.13
2023-03-24T21:10:06.617Z,97543.09
2023-03-24T21:12:34.530Z,97588.16
2023-03-24T21:15:01.384Z,97586.38
2023-03-24T21:17:32.400Z,97409.06
2023-03-24T21:20:02.266Z,97586.22
2023-03-24T21:22:37.994Z,97546.00
2023-03-24T21:25:05.065Z,97569.44
2023-03-24T21:27:32.655Z,97598.69
2023-03-24T21:29:59.520Z,97568.78
2023-03-24T21:32:26.293Z,97596.09
2023-03-24T21:34:52.921Z,97599.63
2023-03-24T21:37:19.768Z,97609.19
2023-03-24T21:39:46.473Z,97620.31
2023-03-24T21:42:15.291Z,97612.41
2023-03-24T21:44:42.770Z,97616.31
2023-03-24T21:47:09.545Z,97576.06
2023-03-24T21:49:36.224Z,97619.22
2023-03-24T21:52:04.399Z,97615.00
2023-03-24T21:54:33.328Z,97615.78
2023-03-24T21:57:00.407Z,97625.50
2023-03-24T21:59:27.244Z,97569.59
2023-03-24T22:01:57.563Z,97625.00
2023-03-24T22:04:25.259Z,97616.63
2023-03-24T22:06:54.447Z,97622.28
2023-03-24T22:09:21.067Z,97585.44
2023-03-24T22:11:47.708Z,97627.88
2023-03-24T22:14:16.209Z,97613.19
2023-03-24T22:16:43.012Z,97632.44
2023-03-24T22:19:09.724Z,97294.44
2023-03-24T22:21:37.257Z,97561.00
2023-03-24T22:24:06.258Z,97639.09
2023-03-24T22:26:32.976Z,97641.47
2023-03-24T22:28:59.920Z,97638.56
2023-03-24T22:31:26.707Z,97651.66
2023-03-24T22:33:53.805Z,97633.41
2023-03-24T22:36:20.511Z,97265.81
2023-03-24T22:38:47.185Z,97533.06
2023-03-24T22:41:13.940Z,97505.44
2023-03-24T22:43:41.604Z,97457.03
2023-03-24T22:46:09.464Z,97653.09
2023-03-24T22:48:37.571Z,97568.53
2023-03-24T22:51:04.498Z,97656.66
2023-03-24T22:53:31.234Z,97626.31
2023-03-24T22:55:57.852Z,97656.22
2023-03-24T22:58:24.408Z,97656.84
2023-03-24T23:00:56.408Z,97659.94
2023-03-24T23:03:23.364Z,97662.84
2023-03-24T23:05:50.190Z,97530.91
2023-03-24T23:08:16.922Z,97668.97
2023-03-24T23:10:45.486Z,97514.16
2023-03-24T23:13:12.512Z,97507.84
2023-03-24T23:15:39.990Z,97657.19
2023-03-24T23:18:07.305Z,97667.03
2023-03-24T23:20:34.422Z,97628.19
2023-03-24T23:23:01.392Z,97663.00
2023-03-24T23:25:30.940Z,97673.97
2023-03-24T23:27:58.659Z,97622.09
2023-03-24T23:30:25.403Z,97629.22
2023-03-24T23:32:52.353Z,97679.44
2023-03-24T23:35:19.762Z,97626.44
2023-03-24T23:37:46.540Z,97676.72
2023-03-24T23:40:15.148Z,97681.91
2023-03-24T23:42:44.849Z,97689.50
2023-03-24T23:45:14.614Z,97654.75
2023-03-24T23:47:43.134Z,97656.03
2023-03-24T23:50:10.653Z,97691.13
2023-03-24T23:52:37.700Z,97693.56
2023-03-24T23:55:04.817Z,97662.00
2023-03-24T23:57:31.736Z,97690.31
2023-03-24T23:59:59.949Z,97684.34
